ADDS METAR Data INFO
IDs: Format: Raw Decoded Include TAF

Data at: 1910 UTC 23 Apr 2018

KDNS 231855Z AUTO 04009G15KT 10SM CLR 20/M00 A3015 RMK AO2
KDNS 231835Z AUTO 07009G14KT 10SM CLR 20/M00 A3016 RMK AO2
KDNS 231815Z AUTO 07010KT 10SM CLR 19/M01 A3017 RMK AO2
KDNS 231755Z AUTO 03009KT 10SM CLR 19/M01 A3018 RMK AO2
KDNS 231735Z AUTO 06010KT 10SM CLR 19/M01 A3019 RMK AO2
KDNS 231715Z AUTO 06009G14KT 10SM CLR 19/M02 A3019 RMK AO2
KDNS 231655Z AUTO VRB05G12KT 10SM CLR 18/M01 A3020 RMK AO2
KDNS 231635Z AUTO 05009KT 10SM CLR 18/M00 A3021 RMK AO2
KDNS 231615Z AUTO 08008KT 10SM CLR 17/00 A3021 RMK AO2
KDNS 231555Z AUTO 07008KT 10SM CLR 17/00 A3021 RMK AO2
KDNS 231535Z AUTO 09005KT 10SM CLR 16/00 A3022 RMK AO2
KDNS 231515Z AUTO 07004KT 10SM CLR 15/00 A3022 RMK AO2
KDNS 231455Z AUTO VRB06KT 10SM CLR 14/02 A3022 RMK AO2
KDNS 231435Z AUTO 05005KT 10SM CLR 13/03 A3023 RMK AO2
KDNS 231415Z AUTO 07005KT 10SM CLR 11/03 A3023 RMK AO2
KDNS 231355Z AUTO 05005KT 10SM CLR 10/02 A3023 RMK AO2
KDNS 231335Z AUTO 03005KT 10SM CLR 08/02 A3023 RMK AO2
KDNS 231315Z AUTO 05005KT 10SM CLR 08/02 A3023 RMK AO2
KDNS 231255Z AUTO 05006KT 10SM CLR 06/02 A3023 RMK AO2
KDNS 231235Z AUTO 04004KT 10SM CLR 04/00 A3023 RMK AO2
KDNS 231215Z AUTO 04004KT 10SM CLR 03/M00 A3023 RMK AO2
KDNS 231155Z AUTO 04004KT 10SM CLR 02/M01 A3023 RMK AO2
KDNS 231135Z AUTO 04004KT 10SM CLR 02/M01 A3022 RMK AO2
KDNS 231115Z AUTO 03005KT 10SM CLR 02/M01 A3022 RMK AO2
KDNS 231055Z AUTO 04004KT 10SM CLR 02/M01 A3021 RMK AO2
KDNS 231035Z AUTO 04004KT 10SM CLR 02/M01 A3021 RMK AO2
KDNS 231015Z AUTO 05003KT 10SM CLR 03/M01 A3021 RMK AO2
KDNS 230955Z AUTO 05003KT 10SM CLR 03/M01 A3020 RMK AO2
KDNS 230935Z AUTO 00000KT 10SM CLR 03/M01 A3020 RMK AO2
KDNS 230915Z AUTO 04004KT 10SM CLR 03/M01 A3020 RMK AO2
KDNS 230855Z AUTO 03005KT 10SM CLR 04/M00 A3020 RMK AO2
KDNS 230835Z AUTO 03007KT 10SM CLR 04/M00 A3020 RMK AO2
KDNS 230815Z AUTO 03008KT 10SM CLR 04/M01 A3020 RMK AO2
KDNS 230755Z AUTO 03005KT 10SM CLR 04/M01 A3020 RMK AO2
KDNS 230735Z AUTO 00000KT 10SM CLR 04/M01 A3020 RMK AO2
KDNS 230715Z AUTO 04007KT 10SM CLR 05/M01 A3020 RMK AO2
KDNS 230655Z AUTO 00000KT 10SM CLR 05/M01 A3020 RMK AO2
KDNS 230635Z AUTO 04004KT 10SM CLR 06/M01 A3020 RMK AO2
KDNS 230615Z AUTO 05004KT 10SM CLR 06/M01 A3021 RMK AO2
KDNS 230555Z AUTO 06003KT 10SM CLR 05/M01 A3021 RMK AO2
KDNS 230535Z AUTO 00000KT 10SM CLR 05/M01 A3020 RMK AO2
KDNS 230515Z AUTO 00000KT 10SM CLR 07/M02 A3020 RMK AO2
KDNS 230455Z AUTO 00000KT 10SM CLR 07/M02 A3020 RMK AO2
KDNS 230435Z AUTO 08003KT 10SM CLR 08/M02 A3021 RMK AO2
KDNS 230415Z AUTO 02003KT 10SM CLR 09/M02 A3021 RMK AO2
KDNS 230355Z AUTO 00000KT 10SM CLR 08/M02 A3021 RMK AO2
KDNS 230335Z AUTO 07004KT 10SM CLR 09/M02 A3021 RMK AO2
KDNS 230315Z AUTO 04004KT 10SM CLR 11/M02 A3021 RMK AO2
KDNS 230255Z AUTO 04003KT 10SM CLR 11/M03 A3020 RMK AO2
KDNS 230235Z AUTO 00000KT 10SM CLR 11/M03 A3020 RMK AO2
KDNS 230215Z AUTO 00000KT 10SM FEW100 11/M03 A3019 RMK AO2
KDNS 230155Z AUTO 09006KT 10SM FEW100 13/M03 A3019 RMK AO2
KDNS 230135Z AUTO 08007KT 10SM FEW100 13/M03 A3018 RMK AO2
KDNS 230115Z AUTO 10006KT 10SM CLR 14/M03 A3018 RMK AO2
KDNS 230055Z AUTO 08007KT 10SM CLR 15/M03 A3018 RMK AO2
KDNS 230035Z AUTO 08008G14KT 10SM FEW100 16/M02 A3018 RMK AO2
KDNS 230015Z AUTO 06008KT 10SM FEW100 17/M02 A3018 RMK AO2
KDNS 222355Z AUTO 08009KT 10SM SCT100 17/M02 A3017 RMK AO2
KDNS 222335Z AUTO 08012KT 10SM OVC100 17/M02 A3017 RMK AO2
KDNS 222315Z AUTO 07009G16KT 10SM OVC100 18/M03 A3017 RMK AO2
KDNS 222255Z AUTO 07011KT 10SM OVC100 18/M02 A3018 RMK AO2
KDNS 222235Z AUTO 08009KT 10SM OVC100 18/M01 A3018 RMK AO2
KDNS 222215Z AUTO 08009KT 10SM OVC100 18/M02 A3018 RMK AO2
KDNS 222155Z AUTO 05008KT 10SM OVC100 18/M02 A3018 RMK AO2
KDNS 222135Z AUTO 06010KT 10SM OVC100 18/M02 A3019 RMK AO2
KDNS 222115Z AUTO 05010KT 10SM SCT100 18/M02 A3019 RMK AO2
KDNS 222055Z AUTO 08009KT 10SM SCT095 18/M01 A3020 RMK AO2
KDNS 222035Z AUTO 07009G15KT 10SM BKN090 18/M01 A3020 RMK AO2
KDNS 221955Z AUTO 07010KT 10SM CLR 17/M01 A3021 RMK AO2
KDNS 221935Z AUTO 09013KT 10SM CLR 17/M01 A3022 RMK AO2
KDNS 221915Z AUTO 08012KT 10SM FEW100 17/M02 A3023 RMK AO2
KDNS 221855Z AUTO 08008G13KT 10SM SCT100 18/M01 A3023 RMK AO2
KDNS 221835Z AUTO VRB06G15KT 10SM SCT095 17/M01 A3023 RMK AO2
KDNS 221815Z AUTO 06010G17KT 10SM SCT095 17/M02 A3024 RMK AO2
KDNS 221755Z AUTO 06009G14KT 10SM OVC095 17/M02 A3024 RMK AO2
KDNS 221735Z AUTO 06009G15KT 050V110 10SM BKN095 16/M02 A3025 RMK AO2
KDNS 221715Z AUTO 09010G17KT 10SM CLR 16/M02 A3025 RMK AO2
KDNS 221655Z AUTO 07013KT 10SM CLR 16/M01 A3025 RMK AO2
KDNS 221635Z AUTO 08012G20KT 10SM CLR 16/M01 A3026 RMK AO2
KDNS 221615Z AUTO 08012KT 10SM SCT090 15/M00 A3026 RMK AO2
KDNS 221555Z AUTO 10011KT 10SM OVC090 14/00 A3026 RMK AO2
KDNS 221535Z AUTO 09009G16KT 10SM BKN095 14/00 A3026 RMK AO2
KDNS 221515Z AUTO 09011G18KT 10SM FEW095 13/M00 A3026 RMK AO2
KDNS 221455Z AUTO 10011KT 10SM BKN095 12/M00 A3026 RMK AO2
KDNS 221435Z AUTO 08010KT 10SM FEW095 11/00 A3027 RMK AO2
KDNS 221415Z AUTO 09011KT 10SM CLR 10/00 A3027 RMK AO2
KDNS 221355Z AUTO 09011G16KT 10SM CLR 09/01 A3027 RMK AO2
KDNS 221335Z AUTO 08006KT 10SM CLR 08/02 A3027 RMK AO2
KDNS 221315Z AUTO 06005KT 10SM CLR 07/02 A3027 RMK AO2
KDNS 221255Z AUTO 06005KT 10SM CLR 06/01 A3027 RMK AO2
KDNS 221235Z AUTO 05006KT 10SM CLR 05/01 A3027 RMK AO2
KDNS 221215Z AUTO 00000KT 10SM CLR 04/01 A3027 RMK AO2
KDNS 221155Z AUTO 05004KT 10SM CLR 03/00 A3026 RMK AO2
KDNS 221135Z AUTO 05005KT 10SM CLR 03/00 A3026 RMK AO2
KDNS 221115Z AUTO 00000KT 10SM CLR 04/00 A3026 RMK AO2
KDNS 221055Z AUTO 05004KT 10SM FEW080 04/01 A3025 RMK AO2
KDNS 221035Z AUTO 05008KT 10SM BKN080 05/01 A3025 RMK AO2
KDNS 221015Z AUTO 05006KT 10SM OVC085 05/01 A3025 RMK AO2
KDNS 220955Z AUTO 05007KT 10SM OVC085 05/01 A3026 RMK AO2
KDNS 220935Z AUTO 03008KT 10SM BKN090 BKN120 05/00 A3026 RMK AO2
KDNS 220915Z AUTO 07005KT 10SM FEW120 05/00 A3026 RMK AO2
KDNS 220855Z AUTO 08006KT 10SM FEW120 06/00 A3026 RMK AO2
KDNS 220835Z AUTO 10005KT 10SM CLR 06/00 A3026 RMK AO2
KDNS 220815Z AUTO 00000KT 10SM FEW120 06/00 A3025 RMK AO2
KDNS 220755Z AUTO 12004KT 10SM CLR 06/M00 A3025 RMK AO2
KDNS 220735Z AUTO 10006KT 10SM CLR 07/M00 A3025 RMK AO2
KDNS 220715Z AUTO 09008KT 10SM CLR 07/M00 A3026 RMK AO2